Tim Scott — WDH4528 — position and weather

sailwx.info

Track history (hours):
 
Tides and Currents Weather Stations Pressure Air Temp Water Temp Dewpoint Dewpoint Depression Visibility Wind Speed Wind Dir Waves Ship Positions

Tim Scott

Owner: Blessey Enterprises, Inc., Harahan, LA. More information available from US FCC via Universal Licensing System and Coast Guard Vessel Documentation Center.

Last reported at 2017-Dec-08 12:30 UTC. Time now 2017-Dec-15 08:10 UTC.
Position N 30°04' W 093°26'.

Length 27 m; draft 3 m.

Type: Towing. MMSI: 367618670.

Date/timePositionNaut miles runAvg speedWind from/ knotsBaromVisibWave heightAir tempDewpointWater temp
2017-Dec-08 12:30N 30°04' W 093°26'0 0.0
2017-Dec-08 10:38N 30°04' W 093°26'0 0.1
2017-Dec-08 10:30N 30°04' W 093°26'0 0.0
2017-Dec-08 10:00N 30°04' W 093°26'0 0.0
2017-Dec-08 09:30N 30°04' W 093°26'1 1.8
2017-Dec-08 09:00N 30°04' W 093°24'2 3.6
2017-Dec-08 08:30N 30°04' W 093°22'2 3.1
2017-Dec-08 08:00N 30°04' W 093°21'1 2.9
2017-Dec-08 07:30N 30°05' W 093°20'1 2.8
2017-Dec-08 07:00N 30°06' W 093°18'1 2.4
2017-Dec-08 06:30N 30°05' W 093°17'2 3.1
2017-Dec-08 06:00N 30°04' W 093°16'0 0.9
2017-Dec-08 05:30N 30°04' W 093°16'0 0.0
2017-Dec-08 05:00N 30°04' W 093°16'0 0.1
2017-Dec-08 04:30N 30°04' W 093°16'0 0.0
2017-Dec-08 04:00N 30°04' W 093°16'0 0.1
2017-Dec-08 03:30N 30°04' W 093°16'1 1.9
2017-Dec-08 03:00N 30°03' W 093°16'1 2.9
2017-Dec-08 02:30N 30°02' W 093°14'0 0.0
2017-Dec-08 02:00N 30°02' W 093°14'0 0.0
2017-Dec-08 01:30N 30°02' W 093°14'0 0.0
2017-Dec-08 01:00N 30°02' W 093°14'0 0.0
2017-Dec-08 00:30N 30°02' W 093°14'0 0.0
2017-Dec-08 00:00N 30°02' W 093°14'0 0.1
2017-Dec-07 23:30N 30°02' W 093°14'0 0.1
2017-Dec-07 23:00N 30°02' W 093°14'0 0.0
2017-Dec-07 22:30N 30°02' W 093°14'0 0.1
2017-Dec-07 22:00N 30°02' W 093°14'1 1.1
2017-Dec-07 21:30N 30°01' W 093°14'2 3.3
2017-Dec-07 21:00N 29°60' W 093°13'1 2.7
2017-Dec-07 20:30N 29°59' W 093°12'1 2.1
2017-Dec-07 20:00N 29°58' W 093°11'2 4.7
2017-Dec-07 19:30N 29°56' W 093°10'2 4.7
2017-Dec-07 19:00N 29°56' W 093°07'2 3.5
2017-Dec-07 18:30N 29°56' W 093°05'0 0.5
2017-Dec-07 17:57N 29°56' W 093°04'37 4.6
2017-Dec-07 09:50N 29°51' W 092°22'2 4.6
2017-Dec-07 09:30N 29°51' W 092°20'2 4.4
2017-Dec-07 09:00N 29°50' W 092°18'2 4.5
2017-Dec-07 08:30N 29°48' W 092°16'3 5.0
2017-Dec-07 07:55N 29°47' W 092°13'1 3.2
2017-Dec-07 07:30N 29°47' W 092°11'1 1.9
2017-Dec-07 07:00N 29°47' W 092°10'2 4.3
2017-Dec-07 06:30N 29°47' W 092°08'2 4.4
2017-Dec-07 06:00N 29°48' W 092°05'2 4.0
2017-Dec-07 05:30N 29°49' W 092°03'2 4.2
2017-Dec-07 05:00N 29°49' W 092°01'  
Track history (hours):
 
Tides and Currents Weather Stations Pressure Air Temp Water Temp Dewpoint Dewpoint Depression Visibility Wind Speed Wind Dir Waves Ship Positions

Tim Scott

Owner: Blessey Enterprises, Inc., Harahan, LA. More information available from US FCC via Universal Licensing System and Coast Guard Vessel Documentation Center.

Last reported at 2017-Dec-08 12:30 UTC. Time now 2017-Dec-15 08:10 UTC.
Position N 30°04' W 093°26'.

Length 27 m; draft 3 m.

Type: Towing. MMSI: 367618670.

Date/timePositionNaut miles runAvg speedWind from/ knotsBaromVisibWave heightAir tempDewpointWater temp
2017-Dec-08 12:30N 30°04' W 093°26'0 0.0
2017-Dec-08 10:38N 30°04' W 093°26'0 0.1
2017-Dec-08 10:30N 30°04' W 093°26'0 0.0
2017-Dec-08 10:00N 30°04' W 093°26'0 0.0
2017-Dec-08 09:30N 30°04' W 093°26'1 1.8
2017-Dec-08 09:00N 30°04' W 093°24'2 3.6
2017-Dec-08 08:30N 30°04' W 093°22'2 3.1
2017-Dec-08 08:00N 30°04' W 093°21'1 2.9
2017-Dec-08 07:30N 30°05' W 093°20'1 2.8
2017-Dec-08 07:00N 30°06' W 093°18'1 2.4
2017-Dec-08 06:30N 30°05' W 093°17'2 3.1
2017-Dec-08 06:00N 30°04' W 093°16'0 0.9
2017-Dec-08 05:30N 30°04' W 093°16'0 0.0
2017-Dec-08 05:00N 30°04' W 093°16'0 0.1
2017-Dec-08 04:30N 30°04' W 093°16'0 0.0
2017-Dec-08 04:00N 30°04' W 093°16'0 0.1
2017-Dec-08 03:30N 30°04' W 093°16'1 1.9
2017-Dec-08 03:00N 30°03' W 093°16'1 2.9
2017-Dec-08 02:30N 30°02' W 093°14'0 0.0
2017-Dec-08 02:00N 30°02' W 093°14'0 0.0
2017-Dec-08 01:30N 30°02' W 093°14'0 0.0
2017-Dec-08 01:00N 30°02' W 093°14'0 0.0
2017-Dec-08 00:30N 30°02' W 093°14'0 0.0
2017-Dec-08 00:00N 30°02' W 093°14'0 0.1
2017-Dec-07 23:30N 30°02' W 093°14'0 0.1
2017-Dec-07 23:00N 30°02' W 093°14'0 0.0
2017-Dec-07 22:30N 30°02' W 093°14'0 0.1
2017-Dec-07 22:00N 30°02' W 093°14'1 1.1
2017-Dec-07 21:30N 30°01' W 093°14'2 3.3
2017-Dec-07 21:00N 29°60' W 093°13'1 2.7
2017-Dec-07 20:30N 29°59' W 093°12'1 2.1
2017-Dec-07 20:00N 29°58' W 093°11'2 4.7
2017-Dec-07 19:30N 29°56' W 093°10'2 4.7
2017-Dec-07 19:00N 29°56' W 093°07'2 3.5
2017-Dec-07 18:30N 29°56' W 093°05'0 0.5
2017-Dec-07 17:57N 29°56' W 093°04'37 4.6
2017-Dec-07 09:50N 29°51' W 092°22'2 4.6
2017-Dec-07 09:30N 29°51' W 092°20'2 4.4
2017-Dec-07 09:00N 29°50' W 092°18'2 4.5
2017-Dec-07 08:30N 29°48' W 092°16'3 5.0
2017-Dec-07 07:55N 29°47' W 092°13'1 3.2
2017-Dec-07 07:30N 29°47' W 092°11'1 1.9
2017-Dec-07 07:00N 29°47' W 092°10'2 4.3
2017-Dec-07 06:30N 29°47' W 092°08'2 4.4
2017-Dec-07 06:00N 29°48' W 092°05'2 4.0
2017-Dec-07 05:30N 29°49' W 092°03'2 4.2
2017-Dec-07 05:00N 29°49' W 092°01'  

Dump ship's entire track history